Time;durP1;ratioP1;P1;durP2;ratioP2;P2;SDS_P1;SDS_P2;PMS_P1;PMS_P2;Temp;Humidity;BMP_temperature;BMP_pressure;BME280_temperature;BME280_humidity;BME280_pressure;Samples;Min_cycle;Max_cycle;Signal;HPM_P1;HPM_P2
2021/06/16 00:01:14;;;;;;;7.83;5.80;;;19.40;99.90;;;;;;5114233;28;20199;-68
2021/06/16 00:03:39;;;;;;;6.13;5.53;;;19.40;99.90;;;;;;5114421;28;20171;-68
2021/06/16 00:06:05;;;;;;;7.43;5.30;;;19.40;99.90;;;;;;5114166;28;20245;-66
2021/06/16 00:08:30;;;;;;;11.50;6.50;;;19.40;99.90;;;;;;5114267;28;20213;-66
2021/06/16 00:10:56;;;;;;;6.73;5.63;;;19.50;99.90;;;;;;5112873;28;20198;-66
2021/06/16 00:13:22;;;;;;;5.20;4.80;;;19.50;99.90;;;;;;5114260;28;20182;-68
2021/06/16 00:15:47;;;;;;;8.10;6.00;;;19.50;99.90;;;;;;5113864;28;20249;-68
2021/06/16 00:18:14;;;;;;;6.77;6.03;;;19.50;99.90;;;;;;5114675;28;20174;-68
2021/06/16 00:20:40;;;;;;;6.30;5.70;;;19.50;99.90;;;;;;5112866;28;20206;-66
2021/06/16 00:23:06;;;;;;;6.53;5.80;;;19.40;99.90;;;;;;5113935;28;20939;-67
2021/06/16 00:25:32;;;;;;;6.53;5.93;;;19.40;99.90;;;;;;5112732;28;20948;-67
2021/06/16 00:27:58;;;;;;;12.03;6.83;;;19.30;99.90;;;;;;5114473;28;20978;-66
2021/06/16 00:30:24;;;;;;;6.77;6.13;;;19.30;99.90;;;;;;5113999;28;20427;-67
2021/06/16 00:32:50;;;;;;;7.30;6.33;;;19.20;99.90;;;;;;5114349;28;20172;-66
2021/06/16 00:35:19;;;;;;;6.53;5.93;;;19.10;99.90;;;;;;5114028;28;20437;-68
2021/06/16 00:37:50;;;;;;;7.43;6.20;;;19.10;99.90;;;;;;5114592;28;20408;-66
2021/06/16 00:40:19;;;;;;;6.53;5.87;;;19.00;99.90;;;;;;5114042;28;20509;-66
2021/06/16 00:42:45;;;;;;;6.50;5.50;;;19.00;99.90;;;;;;5129968;28;20425;-67
2021/06/16 00:45:12;;;;;;;8.10;6.20;;;19.00;99.90;;;;;;5113910;28;20882;-68
2021/06/16 00:47:39;;;;;;;7.73;6.07;;;19.00;99.90;;;;;;5112749;28;20477;-66
2021/06/16 00:50:07;;;;;;;6.73;6.13;;;18.90;99.90;;;;;;5113797;28;20420;-66
2021/06/16 00:52:33;;;;;;;6.03;5.47;;;18.90;99.90;;;;;;5112698;28;20442;-66
2021/06/16 00:54:59;;;;;;;8.50;6.20;;;18.90;99.90;;;;;;5113845;28;20504;-67
2021/06/16 00:57:25;;;;;;;7.27;5.70;;;18.80;99.90;;;;;;5114296;28;20413;-66
2021/06/16 01:00:11;;;;;;;7.43;6.83;;;18.80;99.90;;;;;;5113733;28;20653;-68
2021/06/16 01:02:54;;;;;;;7.03;6.43;;;18.80;99.90;;;;;;5112807;28;20500;-67
2021/06/16 01:05:21;;;;;;;8.00;6.07;;;18.70;99.90;;;;;;5113693;28;20925;-66
2021/06/16 01:07:54;;;;;;;7.17;6.47;;;18.60;99.90;;;;;;5112527;28;20474;-67
2021/06/16 01:10:22;;;;;;;6.87;6.17;;;18.60;99.90;;;;;;5113775;28;20423;-67
2021/06/16 01:13:13;;;;;;;9.00;5.53;;;18.50;99.90;;;;;;5112605;28;20418;-67
2021/06/16 01:16:07;;;;;;;6.83;6.00;;;18.40;99.90;;;;;;5113756;28;20426;-67
2021/06/16 01:18:53;;;;;;;7.03;6.33;;;18.30;99.90;;;;;;5113672;28;20418;-66
2021/06/16 01:21:19;;;;;;;7.27;6.57;;;18.30;99.90;;;;;;5113556;28;20451;-68
2021/06/16 01:24:07;;;;;;;10.33;6.70;;;18.30;99.90;;;;;;5113546;28;20405;-66
2021/06/16 01:26:38;;;;;;;8.70;6.83;;;18.40;99.90;;;;;;5113473;28;20507;-66
2021/06/16 01:29:13;;;;;;;7.27;6.67;;;18.40;99.90;;;;;;5116893;28;20457;-68
2021/06/16 01:31:40;;;;;;;7.20;6.60;;;18.30;99.90;;;;;;5115910;28;20443;-67
2021/06/16 01:34:09;;;;;;;7.87;7.17;;;18.40;99.90;;;;;;5117043;28;20401;-68
2021/06/16 01:36:37;;;;;;;7.07;6.47;;;18.30;99.90;;;;;;5117048;28;20476;-67
2021/06/16 01:39:07;;;;;;;6.90;6.20;;;18.30;99.90;;;;;;5115731;28;20442;-66
2021/06/16 01:41:33;;;;;;;9.23;8.43;;;18.30;99.90;;;;;;5117063;28;20445;-67
2021/06/16 01:44:00;;;;;;;7.00;6.30;;;18.30;99.90;;;;;;5116945;28;20492;-69
2021/06/16 01:46:26;;;;;;;7.70;6.90;;;18.30;99.90;;;;;;5116877;28;20244;-66
2021/06/16 01:48:52;;;;;;;7.00;6.40;;;18.20;99.90;;;;;;5116718;28;20459;-67
2021/06/16 01:51:20;;;;;;;6.90;6.20;;;18.20;99.90;;;;;;5116804;28;20796;-66
2021/06/16 01:53:48;;;;;;;7.30;6.70;;;18.20;99.90;;;;;;5116731;28;20882;-66
2021/06/16 01:56:14;;;;;;;9.03;6.50;;;18.30;99.90;;;;;;5116733;28;20434;-66
2021/06/16 01:58:43;;;;;;;7.53;6.73;;;18.20;99.90;;;;;;5116700;28;20774;-67
2021/06/16 02:01:09;;;;;;;7.13;6.40;;;18.10;99.90;;;;;;5116426;28;20822;-66
2021/06/16 02:03:36;;;;;;;11.30;7.80;;;18.00;99.90;;;;;;5116597;28;20438;-67
2021/06/16 02:06:02;;;;;;;8.13;7.10;;;18.00;99.90;;;;;;5115018;28;20514;-67
2021/06/16 02:08:30;;;;;;;7.27;6.63;;;18.00;99.90;;;;;;5116328;28;20457;-68
2021/06/16 02:10:59;;;;;;;7.90;7.10;;;18.00;99.90;;;;;;5116322;28;20514;-69
2021/06/16 02:13:38;;;;;;;7.47;6.77;;;18.00;99.90;;;;;;5116416;28;20413;-66
2021/06/16 02:16:12;;;;;;;7.77;7.00;;;18.00;99.90;;;;;;5116377;28;20941;-67
2021/06/16 02:18:51;;;;;;;8.80;7.90;;;18.00;99.90;;;;;;5116308;28;20752;-66
2021/06/16 02:21:19;;;;;;;7.83;7.03;;;17.80;99.90;;;;;;5116205;28;20465;-68
2021/06/16 02:23:46;;;;;;;7.83;7.13;;;17.80;99.90;;;;;;5097867;28;20468;-67
2021/06/16 02:26:13;;;;;;;9.70;7.70;;;17.80;99.90;;;;;;5115982;28;20446;-67
2021/06/16 02:28:40;;;;;;;10.03;8.60;;;17.70;99.90;;;;;;5116035;28;20459;-67
2021/06/16 02:31:06;;;;;;;8.07;7.20;;;17.70;99.90;;;;;;5114597;28;20878;-67
2021/06/16 02:33:32;;;;;;;8.83;8.13;;;17.70;99.90;;;;;;5116016;28;20439;-66
2021/06/16 02:35:58;;;;;;;8.07;7.30;;;17.70;99.90;;;;;;5115818;28;20453;-66
2021/06/16 02:38:29;;;;;;;9.40;7.10;;;17.60;99.90;;;;;;5114581;28;20173;-68
2021/06/16 02:40:56;;;;;;;8.27;7.33;;;17.50;99.90;;;;;;5115731;28;20443;-68
2021/06/16 02:43:22;;;;;;;7.70;7.00;;;17.50;99.90;;;;;;5115770;28;20435;-66
2021/06/16 02:45:49;;;;;;;7.50;6.80;;;17.50;99.90;;;;;;5114331;28;20484;-67
2021/06/16 02:48:18;;;;;;;11.20;7.37;;;17.50;99.90;;;;;;5116069;28;20825;-68
2021/06/16 02:50:46;;;;;;;13.37;7.33;;;17.40;99.90;;;;;;5115629;28;20424;-67
2021/06/16 02:53:21;;;;;;;11.77;8.10;;;17.20;99.90;;;;;;5116162;28;20404;-66
2021/06/16 02:55:50;;;;;;;10.33;7.30;;;17.30;99.90;;;;;;5115541;28;20502;-66
2021/06/16 02:58:18;;;;;;;8.10;7.10;;;17.40;99.90;;;;;;5115524;28;20420;-68
2021/06/16 03:00:57;;;;;;;11.03;8.13;;;17.30;99.90;;;;;;5115533;28;20986;-68
2021/06/16 03:03:25;;;;;;;9.30;7.70;;;17.30;99.90;;;;;;5115451;28;20385;-66
2021/06/16 03:05:51;;;;;;;7.87;7.17;;;17.30;99.90;;;;;;5114002;28;20429;-66
2021/06/16 03:08:20;;;;;;;8.30;7.60;;;17.30;99.90;;;;;;5115201;28;21034;-66
2021/06/16 03:10:46;;;;;;;9.40;8.27;;;17.50;99.90;;;;;;5130985;27;20444;-66
2021/06/16 03:13:13;;;;;;;9.37;8.10;;;17.60;99.90;;;;;;5115789;28;20416;-67
2021/06/16 03:15:43;;;;;;;9.43;8.47;;;17.50;99.90;;;;;;5115069;28;20465;-66
2021/06/16 03:18:09;;;;;;;9.80;8.77;;;17.50;99.90;;;;;;5114084;28;20924;-66
2021/06/16 03:20:36;;;;;;;10.63;9.50;;;17.60;99.90;;;;;;5113755;28;20445;-67
2021/06/16 03:23:02;;;;;;;8.83;7.93;;;17.60;99.90;;;;;;5115440;28;20961;-66
2021/06/16 03:25:29;;;;;;;10.33;8.93;;;17.50;99.90;;;;;;5114993;28;20517;-67
2021/06/16 03:27:56;;;;;;;9.33;8.40;;;17.50;99.90;;;;;;5115372;28;20568;-67
2021/06/16 03:30:23;;;;;;;9.33;8.33;;;17.60;99.90;;;;;;5114865;28;20416;-67
2021/06/16 03:32:52;;;;;;;8.83;8.03;;;17.50;99.90;;;;;;5114760;28;20412;-66
2021/06/16 03:35:17;;;;;;;8.57;7.70;;;17.50;99.90;;;;;;5114809;28;20459;-67
2021/06/16 03:37:44;;;;;;;9.90;8.87;;;17.50;99.90;;;;;;5115216;28;20419;-66
2021/06/16 03:40:11;;;;;;;8.47;7.70;;;17.50;99.90;;;;;;5114573;28;20420;-66
2021/06/16 03:42:37;;;;;;;8.90;8.10;;;17.50;99.90;;;;;;5114534;28;20944;-67
2021/06/16 03:45:07;;;;;;;9.93;8.93;;;17.60;99.90;;;;;;5112519;28;20400;-68
2021/06/16 03:47:34;;;;;;;8.70;8.00;;;17.60;99.90;;;;;;5114806;28;20460;-68
2021/06/16 03:50:02;;;;;;;9.10;7.80;;;17.60;99.90;;;;;;5114083;28;20429;-68
2021/06/16 03:52:29;;;;;;;8.30;7.50;;;17.60;99.90;;;;;;5114911;28;20416;-67
2021/06/16 03:54:55;;;;;;;10.80;8.60;;;17.70;99.90;;;;;;5113521;28;20403;-67
2021/06/16 03:57:22;;;;;;;11.07;7.87;;;17.70;99.90;;;;;;5114827;28;20492;-68
2021/06/16 03:59:48;;;;;;;11.10;8.10;;;17.80;99.90;;;;;;5112164;28;20429;-67
2021/06/16 04:02:16;;;;;;;8.87;7.77;;;17.80;99.90;;;;;;5112547;28;20416;-67
2021/06/16 04:04:41;;;;;;;8.40;7.60;;;17.90;99.90;;;;;;5112111;28;20803;-68
2021/06/16 04:07:08;;;;;;;8.40;7.60;;;17.90;99.90;;;;;;5111801;28;20449;-68
2021/06/16 04:09:34;;;;;;;9.07;7.50;;;18.00;99.90;;;;;;5112667;28;20177;-68
2021/06/16 04:12:00;;;;;;;9.00;8.10;;;18.10;99.90;;;;;;5110527;28;20457;-66
2021/06/16 04:14:25;;;;;;;10.60;8.57;;;18.10;99.90;;;;;;5113444;28;20926;-67
2021/06/16 04:16:56;;;;;;;9.70;8.47;;;18.00;99.90;;;;;;5114333;28;20595;-68
2021/06/16 04:19:22;;;;;;;8.93;7.57;;;18.10;99.90;;;;;;5114185;28;20535;-66
2021/06/16 04:21:48;;;;;;;10.53;8.27;;;18.20;99.90;;;;;;5112502;28;20980;-66
2021/06/16 04:24:13;;;;;;;14.80;7.70;;;18.30;99.90;;;;;;5112055;28;20420;-68
2021/06/16 04:26:39;;;;;;;9.80;8.03;;;18.30;99.90;;;;;;5110861;28;20258;-68
2021/06/16 04:29:05;;;;;;;10.07;7.87;;;18.40;99.90;;;;;;5110486;28;20212;-68
2021/06/16 04:31:30;;;;;;;9.50;7.07;;;18.40;99.90;;;;;;5112636;28;20684;-67
2021/06/16 04:33:58;;;;;;;8.67;7.87;;;18.50;99.90;;;;;;5113613;28;20199;-68
2021/06/16 04:36:23;;;;;;;7.77;7.07;;;18.60;99.90;;;;;;5113296;28;20283;-68
2021/06/16 04:38:49;;;;;;;7.90;7.10;;;18.80;99.90;;;;;;5112803;28;20831;-67
2021/06/16 04:41:14;;;;;;;8.33;7.53;;;18.90;99.90;;;;;;5112847;28;20209;-68
2021/06/16 04:43:40;;;;;;;11.80;7.83;;;18.90;99.90;;;;;;5112040;28;20211;-67
2021/06/16 04:46:06;;;;;;;7.10;6.40;;;19.00;99.90;;;;;;5111378;28;20197;-67
2021/06/16 04:48:31;;;;;;;8.07;7.20;;;19.10;99.90;;;;;;5112859;28;20731;-67
2021/06/16 04:50:57;;;;;;;9.10;7.23;;;19.20;99.90;;;;;;5111895;28;20234;-69
2021/06/16 04:53:23;;;;;;;7.47;6.60;;;19.30;99.90;;;;;;5112971;28;20648;-67
2021/06/16 04:55:49;;;;;;;7.20;6.50;;;19.30;99.90;;;;;;5113293;28;20213;-67
2021/06/16 04:58:15;;;;;;;9.50;7.47;;;19.40;99.90;;;;;;5112286;28;20805;-68
2021/06/16 05:00:42;;;;;;;8.50;6.40;;;19.50;99.90;;;;;;5109625;28;20202;-66
2021/06/16 05:03:08;;;;;;;6.80;6.17;;;19.80;99.90;;;;;;5113939;28;20191;-67
2021/06/16 05:05:33;;;;;;;7.40;6.70;;;19.90;99.90;;;;;;5113430;28;20865;-66
2021/06/16 05:07:59;;;;;;;7.50;6.17;;;20.10;99.90;;;;;;5117074;28;20245;-67
2021/06/16 05:10:24;;;;;;;7.80;6.97;;;20.20;99.90;;;;;;5117408;28;20201;-66
2021/06/16 05:12:50;;;;;;;6.83;6.20;;;20.30;99.90;;;;;;5115568;28;20276;-67
2021/06/16 05:15:16;;;;;;;7.00;6.30;;;20.50;99.90;;;;;;5115974;28;20293;-67
2021/06/16 05:17:42;;;;;;;7.10;6.40;;;20.60;99.90;;;;;;5114324;28;20190;-67
2021/06/16 05:20:11;;;;;;;6.80;6.30;;;20.70;99.90;;;;;;5116702;28;20438;-68
2021/06/16 05:22:37;;;;;;;7.10;6.40;;;20.90;99.90;;;;;;5112575;28;20535;-68
2021/06/16 05:25:06;;;;;;;7.83;5.47;;;20.90;99.90;;;;;;5117066;28;20426;-67
2021/06/16 05:27:31;;;;;;;7.00;6.00;;;21.10;99.90;;;;;;5113755;28;20493;-68
2021/06/16 05:29:57;;;;;;;8.07;6.17;;;21.20;99.90;;;;;;5115678;28;20537;-67
2021/06/16 05:32:23;;;;;;;7.90;6.20;;;21.20;99.90;;;;;;5112029;27;20191;-67
2021/06/16 05:34:49;;;;;;;10.10;6.87;;;21.40;99.90;;;;;;5112560;28;20609;-67
2021/06/16 05:37:16;;;;;;;9.10;5.70;;;21.60;99.90;;;;;;5114705;28;20427;-67
2021/06/16 05:39:41;;;;;;;6.60;6.07;;;21.80;99.90;;;;;;5109265;27;20420;-69
2021/06/16 05:42:07;;;;;;;7.57;6.57;;;22.00;99.90;;;;;;5110847;27;20573;-66
2021/06/16 05:44:33;;;;;;;7.00;6.30;;;22.10;99.90;;;;;;5110575;28;20230;-67
2021/06/16 05:46:58;;;;;;;7.53;6.70;;;22.00;99.90;;;;;;5109272;28;20208;-68
2021/06/16 05:49:24;;;;;;;7.23;6.53;;;22.10;99.90;;;;;;5113215;28;20446;-67
2021/06/16 05:51:50;;;;;;;6.07;5.47;;;22.30;99.90;;;;;;5109811;28;20218;-67
2021/06/16 05:54:15;;;;;;;7.57;6.87;;;22.70;99.90;;;;;;5109593;27;20186;-66
2021/06/16 05:56:42;;;;;;;6.53;5.93;;;23.00;99.90;;;;;;5111213;27;20199;-66
2021/06/16 05:59:08;;;;;;;9.00;6.43;;;23.30;99.90;;;;;;5111199;27;20664;-68
2021/06/16 06:01:35;;;;;;;26.20;12.00;;;23.50;99.90;;;;;;5110032;28;20551;-67
2021/06/16 06:04:06;;;;;;;10.57;6.83;;;23.60;99.90;;;;;;5112038;28;20769;-68
2021/06/16 06:06:33;;;;;;;8.40;6.43;;;23.70;99.90;;;;;;5109661;28;20445;-67
2021/06/16 06:08:59;;;;;;;10.10;6.00;;;23.90;99.90;;;;;;5113671;28;20464;-67
2021/06/16 06:11:24;;;;;;;6.23;5.73;;;24.00;99.90;;;;;;5113132;28;20979;-66
2021/06/16 06:13:50;;;;;;;7.10;5.60;;;24.00;99.90;;;;;;5112907;28;20179;-67
2021/06/16 06:16:16;;;;;;;7.03;6.33;;;24.10;99.90;;;;;;5113111;28;20278;-67
2021/06/16 06:18:43;;;;;;;6.10;5.20;;;24.10;99.90;;;;;;5112386;28;20982;-68
2021/06/16 06:21:09;;;;;;;7.13;6.43;;;24.20;99.90;;;;;;5113285;28;20223;-68
2021/06/16 06:23:35;;;;;;;7.17;6.50;;;24.30;99.90;;;;;;5112401;28;20416;-67
2021/06/16 06:26:00;;;;;;;9.40;6.40;;;24.20;99.90;;;;;;5110324;28;20853;-67
2021/06/16 06:28:26;;;;;;;6.27;5.77;;;24.30;99.90;;;;;;5110719;27;20554;-68
2021/06/16 06:30:51;;;;;;;6.67;5.77;;;24.30;99.90;;;;;;5111010;27;20207;-67
2021/06/16 06:33:17;;;;;;;6.93;6.33;;;24.40;99.90;;;;;;5114781;27;20258;-67
2021/06/16 06:35:43;;;;;;;5.27;4.87;;;24.40;99.90;;;;;;5117083;27;20204;-67
2021/06/16 06:38:11;;;;;;;6.83;5.80;;;24.60;99.90;;;;;;5112892;27;20234;-67
2021/06/16 06:40:37;;;;;;;10.43;6.03;;;24.60;99.90;;;;;;5111561;27;20225;-66
2021/06/16 06:43:03;;;;;;;4.87;4.47;;;24.70;99.90;;;;;;5110551;27;20755;-66
2021/06/16 06:45:28;;;;;;;8.73;5.57;;;24.70;99.90;;;;;;5114501;27;20554;-68
2021/06/16 06:47:54;;;;;;;5.60;5.10;;;24.80;99.90;;;;;;5114529;27;20491;-68
2021/06/16 06:50:20;;;;;;;5.90;4.80;;;24.90;99.90;;;;;;5112027;28;20207;-66
2021/06/16 06:52:47;;;;;;;6.17;5.57;;;24.90;99.90;;;;;;5113197;27;20222;-66
2021/06/16 06:55:14;;;;;;;5.80;5.20;;;25.10;99.90;;;;;;5107633;28;20203;-66
2021/06/16 06:57:40;;;;;;;5.43;4.93;;;25.20;99.90;;;;;;5108838;28;20982;-67
2021/06/16 07:00:07;;;;;;;6.10;5.03;;;25.30;99.90;;;;;;5114557;27;20469;-66
2021/06/16 07:02:32;;;;;;;5.47;4.97;;;25.30;99.90;;;;;;5109800;27;20433;-67
2021/06/16 07:04:58;;;;;;;6.50;5.20;;;25.30;99.90;;;;;;5105673;28;20408;-66
2021/06/16 07:07:24;;;;;;;5.03;4.47;;;25.40;99.90;;;;;;5108466;28;20222;-67
2021/06/16 07:09:50;;;;;;;6.50;5.00;;;25.50;99.90;;;;;;5100308;28;20385;-66
2021/06/16 07:12:16;;;;;;;5.20;4.70;;;25.50;99.90;;;;;;5110768;28;20315;-68
2021/06/16 07:14:42;;;;;;;5.07;4.60;;;25.60;99.90;;;;;;5111191;28;20435;-68
2021/06/16 07:17:08;;;;;;;4.97;4.47;;;25.50;99.90;;;;;;5108834;28;20466;-67
2021/06/16 07:19:36;;;;;;;6.73;3.93;;;25.60;99.90;;;;;;5110038;28;20426;-68
2021/06/16 07:22:01;;;;;;;5.73;4.47;;;25.60;99.90;;;;;;5099805;28;20284;-67
2021/06/16 07:24:27;;;;;;;4.53;4.23;;;25.60;99.90;;;;;;5108227;28;20424;-68
2021/06/16 07:26:53;;;;;;;4.43;4.13;;;25.70;99.90;;;;;;5112580;28;20292;-66
2021/06/16 07:29:20;;;;;;;5.13;4.73;;;25.70;99.90;;;;;;5113510;28;20221;-68
2021/06/16 07:31:45;;;;;;;5.77;4.80;;;25.70;99.90;;;;;;5111382;28;20210;-67
2021/06/16 07:34:11;;;;;;;5.37;4.97;;;25.60;99.90;;;;;;5111595;28;20424;-67
2021/06/16 07:36:37;;;;;;;4.53;4.13;;;25.60;99.90;;;;;;5109999;28;20210;-67
2021/06/16 07:39:03;;;;;;;4.10;3.80;;;25.90;99.90;;;;;;5111343;28;20187;-66
2021/06/16 07:41:29;;;;;;;5.23;4.73;;;26.00;99.90;;;;;;5109365;28;20447;-67
2021/06/16 07:43:54;;;;;;;6.53;4.03;;;26.20;99.90;;;;;;5110174;28;20785;-67
2021/06/16 07:46:22;;;;;;;3.70;3.33;;;26.20;99.90;;;;;;5112776;28;20206;-67
2021/06/16 07:48:47;;;;;;;5.00;3.40;;;26.10;99.90;;;;;;5112360;28;20214;-67
2021/06/16 07:51:13;;;;;;;4.00;3.60;;;25.90;99.90;;;;;;5113035;28;20966;-67
2021/06/16 07:53:40;;;;;;;8.90;4.13;;;26.00;99.90;;;;;;5112318;28;20826;-67
2021/06/16 07:56:05;;;;;;;3.60;3.30;;;26.10;99.90;;;;;;5120065;27;20646;-67
2021/06/16 07:58:31;;;;;;;3.63;3.33;;;26.20;99.90;;;;;;5124958;27;20488;-68
2021/06/16 08:00:56;;;;;;;4.00;3.60;;;26.30;99.90;;;;;;5128055;27;20336;-68
2021/06/16 08:03:22;;;;;;;3.73;3.43;;;26.40;99.90;;;;;;5111155;27;20235;-66
2021/06/16 08:05:50;;;;;;;3.70;3.33;;;26.50;99.90;;;;;;5109650;28;20218;-68
2021/06/16 08:08:16;;;;;;;3.63;3.33;;;26.60;99.40;;;;;;5114614;28;20239;-67
2021/06/16 08:10:42;;;;;;;3.83;3.03;;;26.50;99.60;;;;;;5105537;27;20494;-67
2021/06/16 08:13:07;;;;;;;3.87;3.50;;;26.50;99.20;;;;;;5122939;27;20435;-67
2021/06/16 08:15:35;;;;;;;3.60;3.30;;;26.60;99.00;;;;;;5111861;27;20203;-67
2021/06/16 08:18:01;;;;;;;3.43;3.13;;;26.50;99.10;;;;;;5108632;27;20269;-67
2021/06/16 08:20:26;;;;;;;3.60;3.23;;;26.50;98.80;;;;;;5111430;28;20533;-68
2021/06/16 08:22:52;;;;;;;3.80;3.50;;;26.50;98.70;;;;;;5124910;27;20286;-68
2021/06/16 08:25:18;;;;;;;5.03;3.53;;;26.60;99.10;;;;;;5106119;28;20678;-66
2021/06/16 08:27:44;;;;;;;3.13;2.93;;;26.70;98.60;;;;;;5104415;28;20215;-68
2021/06/16 08:30:11;;;;;;;5.20;3.30;;;26.70;98.80;;;;;;5102544;28;20200;-68
2021/06/16 08:32:37;;;;;;;4.90;4.00;;;26.70;98.40;;;;;;5112934;28;20538;-67
2021/06/16 08:35:03;;;;;;;3.20;2.83;;;26.70;98.80;;;;;;5112469;28;20568;-66
2021/06/16 08:37:29;;;;;;;2.87;2.67;;;26.80;99.00;;;;;;5114681;28;20700;-66
2021/06/16 08:39:54;;;;;;;4.10;3.00;;;26.90;98.80;;;;;;5112212;28;20505;-67
2021/06/16 08:42:20;;;;;;;6.23;3.33;;;27.00;98.30;;;;;;5103364;28;20194;-67
2021/06/16 08:44:52;;;;;;;4.83;2.80;;;27.00;98.50;;;;;;5115315;27;20180;-69
2021/06/16 08:47:21;;;;;;;2.93;2.73;;;27.20;98.30;;;;;;5123885;27;20195;-66
2021/06/16 08:49:46;;;;;;;2.93;2.73;;;27.40;97.90;;;;;;5118745;27;20777;-65
2021/06/16 08:52:12;;;;;;;3.60;3.30;;;27.50;98.20;;;;;;5128949;27;20958;-68
2021/06/16 08:54:38;;;;;;;3.10;2.80;;;27.30;97.70;;;;;;5117286;27;20183;-67
2021/06/16 08:57:04;;;;;;;3.00;2.70;;;27.50;97.70;;;;;;5107996;27;20246;-68
2021/06/16 08:59:30;;;;;;;3.20;2.90;;;27.50;97.90;;;;;;5096137;28;20259;-67
2021/06/16 09:01:56;;;;;;;3.80;2.83;;;27.70;97.60;;;;;;5121527;27;20199;-66
2021/06/16 09:04:40;;;;;;;3.30;3.00;;;27.90;97.20;;;;;;5116627;27;20421;-69
2021/06/16 09:07:23;;;;;;;3.87;3.47;;;27.90;97.00;;;;;;5124649;27;20211;-67
2021/06/16 09:10:08;;;;;;;2.77;2.57;;;28.00;97.40;;;;;;5122412;27;20427;-67
2021/06/16 09:12:36;;;;;;;3.10;2.80;;;28.00;97.30;;;;;;5114664;27;20449;-67
2021/06/16 09:15:08;;;;;;;3.17;2.87;;;28.00;97.30;;;;;;5134545;27;20407;-69
2021/06/16 09:17:34;;;;;;;3.50;3.23;;;28.10;97.00;;;;;;5115834;27;20435;-66
2021/06/16 09:20:00;;;;;;;4.83;3.60;;;28.10;96.90;;;;;;5111708;28;20500;-65
2021/06/16 09:22:35;;;;;;;3.27;2.97;;;28.00;96.40;;;;;;5110622;28;20231;-66
2021/06/16 09:25:06;;;;;;;3.40;3.10;;;28.00;96.60;;;;;;5112328;28;20172;-66
2021/06/16 09:27:50;;;;;;;3.07;2.87;;;28.10;96.60;;;;;;5126031;27;20474;-65
2021/06/16 09:30:19;;;;;;;3.17;2.87;;;28.10;96.90;;;;;;5126633;27;20539;-67
2021/06/16 09:33:10;;;;;;;4.60;3.07;;;28.30;96.60;;;;;;5110781;28;20435;-65
2021/06/16 09:35:40;;;;;;;3.23;3.03;;;28.40;96.10;;;;;;5107274;27;20448;-67
2021/06/16 09:38:11;;;;;;;3.40;3.20;;;28.30;95.90;;;;;;5114432;27;20791;-66
2021/06/16 09:40:41;;;;;;;3.13;2.80;;;28.40;95.60;;;;;;5128073;27;20431;-65
2021/06/16 09:43:10;;;;;;;4.13;3.00;;;28.50;95.40;;;;;;5112037;27;20583;-66
2021/06/16 09:45:38;;;;;;;4.03;3.47;;;28.50;95.60;;;;;;5116534;27;20447;-67
2021/06/16 09:48:22;;;;;;;3.50;3.20;;;28.50;94.90;;;;;;5111790;27;20532;-67
2021/06/16 09:50:52;;;;;;;3.60;3.30;;;28.30;95.20;;;;;;5112489;27;20447;-67
2021/06/16 09:53:17;;;;;;;3.60;3.30;;;28.40;95.10;;;;;;5112020;28;20793;-66
2021/06/16 09:55:43;;;;;;;3.30;3.00;;;28.40;95.50;;;;;;5114807;27;20462;-66
2021/06/16 09:58:11;;;;;;;4.13;3.00;;;28.40;94.90;;;;;;5110553;27;20546;-65
2021/06/16 10:00:46;;;;;;;3.80;3.00;;;28.60;94.90;;;;;;5134093;27;20199;-65
2021/06/16 10:03:13;;;;;;;4.93;3.60;;;28.60;94.40;;;;;;5132829;27;20789;-66
2021/06/16 10:06:02;;;;;;;5.40;3.20;;;28.60;94.50;;;;;;5132666;27;20889;-65
2021/06/16 10:08:28;;;;;;;3.77;3.47;;;28.40;94.40;;;;;;5124530;27;20474;-66
2021/06/16 10:10:54;;;;;;;3.80;3.50;;;28.30;94.20;;;;;;5127669;27;20527;-65
2021/06/16 10:13:21;;;;;;;4.73;3.80;;;28.40;94.20;;;;;;5121850;27;20422;-66
2021/06/16 10:15:47;;;;;;;3.87;3.03;;;28.40;94.30;;;;;;5121807;27;20231;-66
2021/06/16 10:18:12;;;;;;;3.70;3.50;;;28.30;94.20;;;;;;5134937;27;20463;-66
2021/06/16 10:20:38;;;;;;;4.40;3.57;;;28.40;93.90;;;;;;5134255;27;20239;-66
2021/06/16 10:23:04;;;;;;;5.50;3.23;;;28.10;94.00;;;;;;5134587;27;20231;-66
2021/06/16 10:25:30;;;;;;;3.30;3.00;;;28.00;94.00;;;;;;5134081;27;20528;-66
2021/06/16 10:27:59;;;;;;;3.80;3.50;;;27.90;94.00;;;;;;5132663;27;20218;-66
2021/06/16 10:30:29;;;;;;;3.43;3.23;;;27.90;94.20;;;;;;5132484;27;20431;-65
2021/06/16 10:32:55;;;;;;;3.20;3.00;;;28.00;94.80;;;;;;5125667;27;21001;-65
2021/06/16 10:35:34;;;;;;;2.73;2.57;;;28.20;94.90;;;;;;5111746;28;20478;-65
2021/06/16 10:38:20;;;;;;;3.40;3.20;;;28.30;93.70;;;;;;5107401;28;20436;-65
2021/06/16 10:40:52;;;;;;;3.63;3.33;;;28.10;94.00;;;;;;5109900;28;20467;-65
2021/06/16 10:43:20;;;;;;;3.70;3.40;;;27.90;93.90;;;;;;5096486;28;20781;-65
2021/06/16 10:45:52;;;;;;;3.90;3.23;;;27.90;93.90;;;;;;5107028;28;20431;-65
2021/06/16 10:48:19;;;;;;;4.17;3.07;;;27.90;94.20;;;;;;5109680;28;20487;-65
2021/06/16 10:53:15;;;;;;;3.63;3.33;;;28.20;95.10;;;;;;5108408;27;20524;-67
2021/06/16 10:55:56;;;;;;;4.07;3.77;;;28.50;94.00;;;;;;5112020;27;20462;-66
2021/06/16 10:58:26;;;;;;;6.23;3.70;;;28.30;93.80;;;;;;5119838;27;20450;-67
2021/06/16 11:01:07;;;;;;;6.33;3.63;;;28.60;93.60;;;;;;5107607;28;20933;-66
2021/06/16 11:03:54;;;;;;;6.57;3.50;;;28.70;93.80;;;;;;5110531;27;20440;-66
2021/06/16 11:06:32;;;;;;;4.40;3.53;;;28.90;93.20;;;;;;5110185;27;20498;-65
2021/06/16 11:09:08;;;;;;;3.33;3.13;;;28.90;93.70;;;;;;5124872;27;20867;-67
2021/06/16 11:11:46;;;;;;;4.70;3.77;;;28.90;93.20;;;;;;5118847;27;20511;-69
2021/06/16 11:14:34;;;;;;;3.50;3.30;;;28.90;93.10;;;;;;5105878;28;20455;-68
2021/06/16 11:17:01;;;;;;;4.47;3.00;;;29.00;93.30;;;;;;5111129;27;20487;-67
2021/06/16 11:19:27;;;;;;;4.63;3.30;;;29.00;93.60;;;;;;5114965;27;20543;-69
2021/06/16 11:21:56;;;;;;;4.00;3.10;;;29.00;93.60;;;;;;5107106;27;20479;-68
2021/06/16 11:24:22;;;;;;;3.43;2.93;;;29.20;92.90;;;;;;5123024;27;20415;-66
2021/06/16 11:26:49;;;;;;;4.10;3.43;;;29.30;92.90;;;;;;5116632;27;20508;-67
2021/06/16 11:29:52;;;;;;;4.40;3.40;;;29.30;92.90;;;;;;5115892;27;20465;-66
2021/06/16 11:32:18;;;;;;;4.10;3.80;;;29.40;92.50;;;;;;5113818;27;20442;-67
2021/06/16 11:34:54;;;;;;;4.60;3.20;;;29.40;92.60;;;;;;5113303;27;20418;-69
2021/06/16 11:37:58;;;;;;;3.10;2.90;;;29.10;93.10;;;;;;5109856;27;20217;-67
2021/06/16 11:40:26;;;;;;;4.10;3.70;;;28.90;92.80;;;;;;5085972;27;20451;-67
2021/06/16 11:42:52;;;;;;;3.40;3.10;;;29.10;92.90;;;;;;5113632;27;20481;-68
2021/06/16 11:45:18;;;;;;;3.00;2.80;;;29.20;92.90;;;;;;5108079;27;20435;-68
2021/06/16 11:47:52;;;;;;;4.30;3.90;;;29.40;92.90;;;;;;5115204;27;20476;-68
2021/06/16 11:50:29;;;;;;;3.50;3.23;;;29.40;93.00;;;;;;5111436;27;20688;-68
2021/06/16 11:53:03;;;;;;;4.10;3.17;;;29.60;92.60;;;;;;5103506;27;20440;-68
2021/06/16 11:55:46;;;;;;;4.13;3.00;;;29.60;92.60;;;;;;5106807;27;20527;-68
2021/06/16 11:58:32;;;;;;;3.30;3.00;;;29.60;91.40;;;;;;5105788;27;20959;-67
2021/06/16 12:01:11;;;;;;;4.67;3.10;;;29.40;91.50;;;;;;5103433;28;20455;-69
2021/06/16 12:03:40;;;;;;;3.17;2.87;;;29.40;91.70;;;;;;5117675;27;20802;-67
2021/06/16 12:06:14;;;;;;;3.30;2.97;;;29.40;91.80;;;;;;5109362;27;20517;-66
2021/06/16 12:08:42;;;;;;;3.60;3.30;;;29.50;92.10;;;;;;5111029;27;20464;-67
2021/06/16 12:11:17;;;;;;;3.70;3.40;;;29.50;92.10;;;;;;5109243;28;20444;-67
2021/06/16 12:14:04;;;;;;;3.23;3.03;;;29.60;91.40;;;;;;5106942;28;20476;-67
2021/06/16 12:16:41;;;;;;;3.77;2.97;;;29.70;91.70;;;;;;5108109;28;20559;-66
2021/06/16 12:19:12;;;;;;;3.53;3.30;;;29.80;91.90;;;;;;5114429;27;20436;-68
2021/06/16 12:21:55;;;;;;;3.40;3.03;;;29.90;91.60;;;;;;5099057;28;20496;-69
2021/06/16 12:24:23;;;;;;;6.40;3.23;;;30.00;91.20;;;;;;5107430;28;20841;-67
2021/06/16 12:27:17;;;;;;;4.10;3.50;;;30.10;90.80;;;;;;5109314;28;20464;-67
2021/06/16 12:29:51;;;;;;;3.93;3.60;;;29.70;92.10;;;;;;5102166;28;20833;-68
2021/06/16 12:32:41;;;;;;;5.23;4.33;;;29.90;91.40;;;;;;5111299;28;20856;-68
2021/06/16 12:35:26;;;;;;;3.50;3.20;;;30.10;91.10;;;;;;5106214;28;20456;-69
2021/06/16 12:37:56;;;;;;;8.40;3.47;;;30.00;90.80;;;;;;5114893;28;20478;-67
2021/06/16 12:40:37;;;;;;;4.00;3.60;;;30.20;91.30;;;;;;5110304;28;20470;-66
2021/06/16 12:43:05;;;;;;;3.23;2.90;;;30.30;91.10;;;;;;5103303;28;20427;-68
2021/06/16 12:45:36;;;;;;;3.43;3.13;;;30.30;91.50;;;;;;5106663;28;21003;-67
2021/06/16 12:48:26;;;;;;;3.53;3.23;;;30.40;91.40;;;;;;5110416;28;20684;-67
2021/06/16 12:51:03;;;;;;;3.40;3.20;;;30.30;91.50;;;;;;5107197;28;20808;-67
2021/06/16 12:53:35;;;;;;;4.73;3.70;;;30.20;90.90;;;;;;5104356;28;20507;-68
2021/06/16 12:56:01;;;;;;;3.60;3.30;;;30.30;91.70;;;;;;5105192;28;20432;-67
2021/06/16 12:58:28;;;;;;;3.20;3.00;;;30.30;91.00;;;;;;5108952;28;20446;-67